Maple Falls, WA (98266)

8:09 AM PDT on April 27, 2017 (GMT -0700)
Div 7-8, Paradise Lakes | | Change Station

Elev 528 ft 48.95 °N, 122.14 °W | Updated 2 seconds ago

Overcast
Overcast
42.8 °F
Feels Like 43 °F
N
0.0
Wind Variable Wind from ESE

Today
High -- | Low -- °F
--% Chance of Precip.
Yesterday
High -- | Low -- °F
Precip. -- in
Pressure 30.05 in
Visibility 10.0 miles
Clouds Scattered Clouds 4600 ft
Scattered Clouds 5000 ft
Overcast 7000 ft
Windchill 43 °F
Dew Point 42 °F
Humidity 98%
Rainfall 0.15 in
Snow Depth Not available.
5:54 AM 8:19 PM
New Moon, 2% visible
METAR KBLI 271453Z 15006KT 10SM SCT046 SCT050 OVC070 08/05 A3003 RMK AO2 SLP176 60000 T00830050 53014
Pressure 30.05 in
Visibility 10.0 miles
Clouds Scattered Clouds 4600 ft
Scattered Clouds 5000 ft
Overcast 7000 ft
Windchill 43 °F
Dew Point 42 °F
Humidity 98%
Rainfall 0.15 in
Snow Depth Not available.
5:54 AM 8:19 PM
New Moon, 2% visible
METAR KBLI 271453Z 15006KT 10SM SCT046 SCT050 OVC070 08/05 A3003 RMK AO2 SLP176 60000 T00830050 53014

Get Severe Weather Alerts

Thanks for signing up!

Be on the lookout for a verification email in your inbox.

You'll start receiving the daily forecast at 8 AM.

×

10-Day Weather Forecast

Almanac

Astronomy

Apr. 27, 2017 Rise Set
Actual Time
Civil Twilight
Nautical Twilight
Astronomical Twilight
Moon
Length of Visible Light
Length of Day
Tomorrow will be .
, % of the Moon is Illuminated

Today's Extremes

State Highs State Lows

Community

WunderPhotos

WunderBlog® & News

Nearby

Air Quality

  Air Quality AQ Index Pollutant
Not available.

Snow Depth

Station Depth Elevation

Earthquake Activity

City Distance Mag. Time & Date
Minimum magnitude displayed is 2.5.

Coastal Water Temperatures

Place Temperature

Stations

Nearby Weather Stations

Station Location Temp. Windchill Dew Point Humidity Wind Precip. Elev Updated Type
                   

Watches & Warnings

There are currently no watches in effect.